sensor_id;sensor_type;location;lat;lon;timestamp;pressure;altitude;pressure_sealevel;temperature;humidity
76496;BME280;65329;52.544;4.662;2023-02-01T00:02:19;78514.13;;;-139.74;0.00
76496;BME280;65329;52.544;4.662;2023-02-01T00:04:46;78522.53;;;-139.74;0.00
76496;BME280;65329;52.544;4.662;2023-02-01T00:07:13;78543.50;;;-139.74;0.00
76496;BME280;65329;52.544;4.662;2023-02-01T00:09:40;78528.81;;;-139.74;0.00
76496;BME280;65329;52.544;4.662;2023-02-01T00:12:07;78535.13;;;-139.74;0.00
76496;BME280;65329;52.544;4.662;2023-02-01T00:14:33;78539.31;;;-139.74;0.00
76496;BME280;65329;52.544;4.662;2023-02-01T00:17:05;78535.13;;;-139.74;0.00
76496;BME280;65329;52.544;4.662;2023-02-01T00:19:33;78526.72;;;-139.74;0.00
76496;BME280;65329;52.544;4.662;2023-02-01T00:22:00;78528.81;;;-139.74;0.00
76496;BME280;65329;52.544;4.662;2023-02-01T00:24:27;78520.44;;;-139.74;0.00
76496;BME280;65329;52.544;4.662;2023-02-01T00:26:54;78520.44;;;-139.74;0.00
76496;BME280;65329;52.544;4.662;2023-02-01T00:29:23;78509.94;;;-139.74;0.00
76496;BME280;65329;52.544;4.662;2023-02-01T00:31:51;78516.22;;;-139.74;0.00
76496;BME280;65329;52.544;4.662;2023-02-01T00:34:19;78522.53;;;-139.74;0.00
76496;BME280;65329;52.544;4.662;2023-02-01T00:36:48;78514.13;;;-139.74;0.00
76496;BME280;65329;52.544;4.662;2023-02-01T00:39:16;78509.94;;;-139.74;0.00
76496;BME280;65329;52.544;4.662;2023-02-01T00:41:44;78509.94;;;-139.74;0.00
76496;BME280;65329;52.544;4.662;2023-02-01T00:44:12;78505.72;;;-139.74;0.00
76496;BME280;65329;52.544;4.662;2023-02-01T00:46:39;78516.22;;;-139.74;0.00
76496;BME280;65329;52.544;4.662;2023-02-01T00:49:06;78509.94;;;-139.74;0.00
76496;BME280;65329;52.544;4.662;2023-02-01T00:51:33;78497.34;;;-139.74;0.00
76496;BME280;65329;52.544;4.662;2023-02-01T00:54:00;78514.13;;;-139.74;0.00
76496;BME280;65329;52.544;4.662;2023-02-01T00:56:28;78518.31;;;-139.74;0.00
76496;BME280;65329;52.544;4.662;2023-02-01T00:58:55;78505.72;;;-139.74;0.00
76496;BME280;65329;52.544;4.662;2023-02-01T01:01:25;78501.53;;;-139.74;0.00
76496;BME280;65329;52.544;4.662;2023-02-01T01:03:56;78488.94;;;-139.74;0.00
76496;BME280;65329;52.544;4.662;2023-02-01T01:06:30;78509.94;;;-139.74;0.00
76496;BME280;65329;52.544;4.662;2023-02-01T01:08:59;78503.63;;;-139.74;0.00
76496;BME280;65329;52.544;4.662;2023-02-01T01:11:29;78501.53;;;-139.74;0.00
76496;BME280;65329;52.544;4.662;2023-02-01T01:13:57;78497.34;;;-139.74;0.00
76496;BME280;65329;52.544;4.662;2023-02-01T01:16:27;78486.84;;;-139.74;0.00
76496;BME280;65329;52.544;4.662;2023-02-01T01:18:54;78484.75;;;-139.74;0.00
76496;BME280;65329;52.544;4.662;2023-02-01T01:21:21;78480.56;;;-139.74;0.00
76496;BME280;65329;52.544;4.662;2023-02-01T01:23:49;78493.13;;;-139.74;0.00
76496;BME280;65329;52.544;4.662;2023-02-01T01:26:21;78503.63;;;-139.74;0.00
76496;BME280;65329;52.544;4.662;2023-02-01T01:28:50;78491.03;;;-139.74;0.00
76496;BME280;65329;52.544;4.662;2023-02-01T01:31:18;78480.56;;;-139.74;0.00
76496;BME280;65329;52.544;4.662;2023-02-01T01:33:49;78463.75;;;-139.74;0.00
76496;BME280;65329;52.544;4.662;2023-02-01T01:36:16;78459.56;;;-139.74;0.00
76496;BME280;65329;52.544;4.662;2023-02-01T01:38:43;78459.56;;;-139.74;0.00
76496;BME280;65329;52.544;4.662;2023-02-01T01:41:14;78465.84;;;-139.74;0.00
76496;BME280;65329;52.544;4.662;2023-02-01T01:44:00;78459.56;;;-139.74;0.00
76496;BME280;65329;52.544;4.662;2023-02-01T01:46:35;78461.66;;;-139.74;0.00
76496;BME280;65329;52.544;4.662;2023-02-01T01:49:12;78463.75;;;-139.74;0.00
76496;BME280;65329;52.544;4.662;2023-02-01T01:51:49;78457.47;;;-139.74;0.00
76496;BME280;65329;52.544;4.662;2023-02-01T01:54:45;78457.47;;;-139.74;0.00
76496;BME280;65329;52.544;4.662;2023-02-01T01:57:20;78459.56;;;-139.74;0.00
76496;BME280;65329;52.544;4.662;2023-02-01T01:59:54;78461.66;;;-139.74;0.00
76496;BME280;65329;52.544;4.662;2023-02-01T02:02:23;78463.75;;;-139.74;0.00
76496;BME280;65329;52.544;4.662;2023-02-01T02:04:51;78459.56;;;-139.74;0.00
76496;BME280;65329;52.544;4.662;2023-02-01T02:07:23;78446.97;;;-139.74;0.00
76496;BME280;65329;52.544;4.662;2023-02-01T02:09:52;78442.78;;;-139.74;0.00
76496;BME280;65329;52.544;4.662;2023-02-01T02:12:28;78434.38;;;-139.74;0.00
76496;BME280;65329;52.544;4.662;2023-02-01T02:14:55;78430.19;;;-139.74;0.00
76496;BME280;65329;52.544;4.662;2023-02-01T02:20:27;78442.78;;;-139.74;0.00
76496;BME280;65329;52.544;4.662;2023-02-01T02:33:54;78421.78;;;-139.74;0.00
76496;BME280;65329;52.544;4.662;2023-02-01T02:42:13;78413.38;;;-139.74;0.00
76496;BME280;65329;52.544;4.662;2023-02-01T02:45:08;78413.38;;;-139.74;0.00
76496;BME280;65329;52.544;4.662;2023-02-01T02:48:18;78417.59;;;-139.74;0.00
76496;BME280;65329;52.544;4.662;2023-02-01T02:53:51;78379.81;;;-139.74;0.00
76496;BME280;65329;52.544;4.662;2023-02-01T02:56:40;78365.13;;;-139.74;0.00
76496;BME280;65329;52.544;4.662;2023-02-01T02:59:28;78358.81;;;-139.74;0.00
76496;BME280;65329;52.544;4.662;2023-02-01T03:02:15;78342.03;;;-139.74;0.00
76496;BME280;65329;52.544;4.662;2023-02-01T03:05:02;78342.03;;;-139.74;0.00
76496;BME280;65329;52.544;4.662;2023-02-01T03:16:13;78350.41;;;-139.74;0.00
76496;BME280;65329;52.544;4.662;2023-02-01T03:18:48;78342.03;;;-139.74;0.00
76496;BME280;65329;52.544;4.662;2023-02-01T03:21:24;78342.03;;;-139.74;0.00
76496;BME280;65329;52.544;4.662;2023-02-01T03:23:53;78342.03;;;-139.74;0.00
76496;BME280;65329;52.544;4.662;2023-02-01T03:26:24;78342.03;;;-139.74;0.00
76496;BME280;65329;52.544;4.662;2023-02-01T03:28:59;78352.53;;;-139.74;0.00
76496;BME280;65329;52.544;4.662;2023-02-01T03:31:30;78346.22;;;-139.74;0.00
76496;BME280;65329;52.544;4.662;2023-02-01T03:33:58;78363.00;;;-139.74;0.00
76496;BME280;65329;52.544;4.662;2023-02-01T03:36:30;78346.22;;;-139.74;0.00
76496;BME280;65329;52.544;4.662;2023-02-01T03:41:51;78346.22;;;-139.74;0.00
76496;BME280;65329;52.544;4.662;2023-02-01T03:44:26;78342.03;;;-139.74;0.00
76496;BME280;65329;52.544;4.662;2023-02-01T03:47:10;78342.03;;;-139.74;0.00
76496;BME280;65329;52.544;4.662;2023-02-01T03:49:43;78346.22;;;-139.74;0.00
76496;BME280;65329;52.544;4.662;2023-02-01T03:52:21;78342.03;;;-139.74;0.00
76496;BME280;65329;52.544;4.662;2023-02-01T03:54:51;78339.94;;;-139.74;0.00
76496;BME280;65329;52.544;4.662;2023-02-01T03:57:23;78239.19;;;-139.74;0.00
76496;BME280;65329;52.544;4.662;2023-02-01T03:59:52;78226.59;;;-139.74;0.00
76496;BME280;65329;52.544;4.662;2023-02-01T04:02:21;78216.09;;;-139.74;0.00
76496;BME280;65329;52.544;4.662;2023-02-01T04:04:48;78211.91;;;-139.74;0.00
76496;BME280;65329;52.544;4.662;2023-02-01T04:07:17;78220.31;;;-139.74;0.00
76496;BME280;65329;52.544;4.662;2023-02-01T04:09:45;78222.41;;;-139.74;0.00
76496;BME280;65329;52.544;4.662;2023-02-01T04:12:12;78228.69;;;-139.74;0.00
76496;BME280;65329;52.544;4.662;2023-02-01T04:14:39;78228.69;;;-139.74;0.00
76496;BME280;65329;52.544;4.662;2023-02-01T04:17:06;78224.50;;;-139.74;0.00
76496;BME280;65329;52.544;4.662;2023-02-01T04:19:33;78224.50;;;-139.74;0.00
76496;BME280;65329;52.544;4.662;2023-02-01T04:22:00;78232.91;;;-139.74;0.00
76496;BME280;65329;52.544;4.662;2023-02-01T04:24:28;78237.09;;;-139.74;0.00
76496;BME280;65329;52.544;4.662;2023-02-01T04:26:55;78237.09;;;-139.74;0.00
76496;BME280;65329;52.544;4.662;2023-02-01T04:29:22;78245.47;;;-139.74;0.00
76496;BME280;65329;52.544;4.662;2023-02-01T04:31:49;78241.28;;;-139.74;0.00
76496;BME280;65329;52.544;4.662;2023-02-01T04:34:17;78224.50;;;-139.74;0.00
76496;BME280;65329;52.544;4.662;2023-02-01T04:36:44;78216.09;;;-139.74;0.00
76496;BME280;65329;52.544;4.662;2023-02-01T04:39:12;78209.81;;;-139.74;0.00
76496;BME280;65329;52.544;4.662;2023-02-01T04:41:40;78199.31;;;-139.74;0.00
76496;BME280;65329;52.544;4.662;2023-02-01T04:44:14;78199.31;;;-139.74;0.00
76496;BME280;65329;52.544;4.662;2023-02-01T04:46:42;78203.50;;;-139.74;0.00
76496;BME280;65329;52.544;4.662;2023-02-01T04:49:09;78216.09;;;-139.74;0.00
76496;BME280;65329;52.544;4.662;2023-02-01T04:51:37;78218.19;;;-139.74;0.00
76496;BME280;65329;52.544;4.662;2023-02-01T04:54:04;78211.91;;;-139.74;0.00
76496;BME280;65329;52.544;4.662;2023-02-01T04:56:31;78207.72;;;-139.74;0.00
76496;BME280;65329;52.544;4.662;2023-02-01T04:58:58;78224.50;;;-139.74;0.00
76496;BME280;65329;52.544;4.662;2023-02-01T05:01:25;78201.41;;;-139.74;0.00
76496;BME280;65329;52.544;4.662;2023-02-01T05:03:52;78199.31;;;-139.74;0.00
76496;BME280;65329;52.544;4.662;2023-02-01T05:06:20;78197.22;;;-139.74;0.00
76496;BME280;65329;52.544;4.662;2023-02-01T05:08:47;78209.81;;;-139.74;0.00
76496;BME280;65329;52.544;4.662;2023-02-01T05:11:14;78224.50;;;-139.74;0.00
76496;BME280;65329;52.544;4.662;2023-02-01T05:14:00;78211.91;;;-139.74;0.00
76496;BME280;65329;52.544;4.662;2023-02-01T05:16:28;78220.31;;;-139.74;0.00
76496;BME280;65329;52.544;4.662;2023-02-01T05:18:55;78220.31;;;-139.74;0.00
76496;BME280;65329;52.544;4.662;2023-02-01T05:21:22;78230.78;;;-139.74;0.00
76496;BME280;65329;52.544;4.662;2023-02-01T05:23:49;78220.31;;;-139.74;0.00
76496;BME280;65329;52.544;4.662;2023-02-01T05:26:35;78228.69;;;-139.74;0.00
76496;BME280;65329;52.544;4.662;2023-02-01T05:29:04;78228.69;;;-139.74;0.00
76496;BME280;65329;52.544;4.662;2023-02-01T05:31:31;78232.91;;;-139.74;0.00
76496;BME280;65329;52.544;4.662;2023-02-01T05:33:58;78241.28;;;-139.74;0.00
76496;BME280;65329;52.544;4.662;2023-02-01T05:36:25;78226.59;;;-139.74;0.00
76496;BME280;65329;52.544;4.662;2023-02-01T05:38:53;78230.78;;;-139.74;0.00
76496;BME280;65329;52.544;4.662;2023-02-01T05:41:19;78235.00;;;-139.74;0.00
76496;BME280;65329;52.544;4.662;2023-02-01T05:43:46;78241.28;;;-139.74;0.00
76496;BME280;65329;52.544;4.662;2023-02-01T05:46:15;78241.28;;;-139.74;0.00
76496;BME280;65329;52.544;4.662;2023-02-01T05:48:42;78247.59;;;-139.74;0.00
76496;BME280;65329;52.544;4.662;2023-02-01T05:51:10;78247.59;;;-139.74;0.00
76496;BME280;65329;52.544;4.662;2023-02-01T05:53:37;78237.09;;;-139.74;0.00
76496;BME280;65329;52.544;4.662;2023-02-01T05:56:05;78235.00;;;-139.74;0.00
76496;BME280;65329;52.544;4.662;2023-02-01T05:58:32;78253.88;;;-139.74;0.00
76496;BME280;65329;52.544;4.662;2023-02-01T06:01:02;78270.66;;;-139.74;0.00
76496;BME280;65329;52.544;4.662;2023-02-01T06:03:30;78266.47;;;-139.74;0.00
76496;BME280;65329;52.544;4.662;2023-02-01T06:05:56;78283.25;;;-139.74;0.00
76496;BME280;65329;52.544;4.662;2023-02-01T06:08:25;78291.66;;;-139.74;0.00
76496;BME280;65329;52.544;4.662;2023-02-01T06:11:04;78287.47;;;-139.74;0.00
76496;BME280;65329;52.544;4.662;2023-02-01T06:13:31;78302.16;;;-139.74;0.00
76496;BME280;65329;52.544;4.662;2023-02-01T06:16:02;78295.84;;;-139.74;0.00
76496;BME280;65329;52.544;4.662;2023-02-01T06:18:30;78287.47;;;-139.74;0.00
76496;BME280;65329;52.544;4.662;2023-02-01T06:20:58;78289.56;;;-139.74;0.00
76496;BME280;65329;52.544;4.662;2023-02-01T06:23:29;78285.34;;;-139.74;0.00
76496;BME280;65329;52.544;4.662;2023-02-01T06:26:04;78283.25;;;-139.74;0.00
76496;BME280;65329;52.544;4.662;2023-02-01T06:28:32;78283.25;;;-139.74;0.00
76496;BME280;65329;52.544;4.662;2023-02-01T06:31:04;78289.56;;;-139.74;0.00
76496;BME280;65329;52.544;4.662;2023-02-01T06:33:34;78287.47;;;-139.74;0.00
76496;BME280;65329;52.544;4.662;2023-02-01T06:36:04;78274.88;;;-139.74;0.00
76496;BME280;65329;52.544;4.662;2023-02-01T06:38:33;78264.38;;;-139.74;0.00
76496;BME280;65329;52.544;4.662;2023-02-01T06:41:04;78279.06;;;-139.74;0.00
76496;BME280;65329;52.544;4.662;2023-02-01T06:43:32;78281.16;;;-139.74;0.00
76496;BME280;65329;52.544;4.662;2023-02-01T06:46:04;78279.06;;;-139.74;0.00
76496;BME280;65329;52.544;4.662;2023-02-01T06:48:32;78279.06;;;-139.74;0.00
76496;BME280;65329;52.544;4.662;2023-02-01T06:50:59;78287.47;;;-139.74;0.00
76496;BME280;65329;52.544;4.662;2023-02-01T06:53:27;78283.25;;;-139.74;0.00
76496;BME280;65329;52.544;4.662;2023-02-01T06:55:56;78279.06;;;-139.74;0.00
76496;BME280;65329;52.544;4.662;2023-02-01T06:58:24;78272.75;;;-139.74;0.00
76496;BME280;65329;52.544;4.662;2023-02-01T07:00:55;78270.66;;;-139.74;0.00
76496;BME280;65329;52.544;4.662;2023-02-01T07:03:22;78287.47;;;-139.74;0.00
76496;BME280;65329;52.544;4.662;2023-02-01T07:05:49;78274.88;;;-139.74;0.00
76496;BME280;65329;52.544;4.662;2023-02-01T07:08:16;78283.25;;;-139.74;0.00
76496;BME280;65329;52.544;4.662;2023-02-01T07:10:43;78276.97;;;-139.74;0.00
76496;BME280;65329;52.544;4.662;2023-02-01T07:13:10;78279.06;;;-139.74;0.00
76496;BME280;65329;52.544;4.662;2023-02-01T07:15:37;78281.16;;;-139.74;0.00
76496;BME280;65329;52.544;4.662;2023-02-01T07:18:04;78289.56;;;-139.74;0.00
76496;BME280;65329;52.544;4.662;2023-02-01T07:20:32;78291.66;;;-139.74;0.00
76496;BME280;65329;52.544;4.662;2023-02-01T07:22:59;78287.47;;;-139.74;0.00
76496;BME280;65329;52.544;4.662;2023-02-01T07:25:26;78295.84;;;-139.74;0.00
76496;BME280;65329;52.544;4.662;2023-02-01T07:27:54;78283.25;;;-139.74;0.00
76496;BME280;65329;52.544;4.662;2023-02-01T07:30:20;78279.06;;;-139.74;0.00
76496;BME280;65329;52.544;4.662;2023-02-01T07:32:48;78266.47;;;-139.74;0.00
76496;BME280;65329;52.544;4.662;2023-02-01T07:35:15;78283.25;;;-139.74;0.00
76496;BME280;65329;52.544;4.662;2023-02-01T07:37:42;78285.34;;;-139.74;0.00
76496;BME280;65329;52.544;4.662;2023-02-01T07:40:18;78287.47;;;-139.74;0.00
76496;BME280;65329;52.544;4.662;2023-02-01T07:42:48;78279.06;;;-139.74;0.00
76496;BME280;65329;52.544;4.662;2023-02-01T07:45:15;78274.88;;;-139.74;0.00
76496;BME280;65329;52.544;4.662;2023-02-01T07:47:47;78274.88;;;-139.74;0.00
76496;BME280;65329;52.544;4.662;2023-02-01T07:50:15;78276.97;;;-139.74;0.00
76496;BME280;65329;52.544;4.662;2023-02-01T07:52:42;78304.25;;;-139.74;0.00
76496;BME280;65329;52.544;4.662;2023-02-01T07:55:09;78295.84;;;-139.74;0.00
76496;BME280;65329;52.544;4.662;2023-02-01T07:57:36;78318.94;;;-139.74;0.00
76496;BME280;65329;52.544;4.662;2023-02-01T08:00:04;78249.69;;;-139.74;0.00
76496;BME280;65329;52.544;4.662;2023-02-01T08:02:50;78228.69;;;-139.74;0.00
76496;BME280;65329;52.544;4.662;2023-02-01T08:05:17;78245.47;;;-139.74;0.00
76496;BME280;65329;52.544;4.662;2023-02-01T08:07:48;78232.91;;;-139.74;0.00
76496;BME280;65329;52.544;4.662;2023-02-01T08:10:16;78232.91;;;-139.74;0.00
76496;BME280;65329;52.544;4.662;2023-02-01T08:12:45;78241.28;;;-139.74;0.00
76496;BME280;65329;52.544;4.662;2023-02-01T08:15:15;78237.09;;;-139.74;0.00
76496;BME280;65329;52.544;4.662;2023-02-01T08:17:53;78224.50;;;-139.74;0.00
76496;BME280;65329;52.544;4.662;2023-02-01T08:20:24;78220.31;;;-139.74;0.00
76496;BME280;65329;52.544;4.662;2023-02-01T08:22:54;78209.81;;;-139.74;0.00
76496;BME280;65329;52.544;4.662;2023-02-01T08:25:22;78216.09;;;-139.74;0.00
76496;BME280;65329;52.544;4.662;2023-02-01T08:27:50;78201.41;;;-139.74;0.00
76496;BME280;65329;52.544;4.662;2023-02-01T08:30:17;78195.13;;;-139.74;0.00
76496;BME280;65329;52.544;4.662;2023-02-01T08:32:45;78199.31;;;-139.74;0.00
76496;BME280;65329;52.544;4.662;2023-02-01T08:35:12;78195.13;;;-139.74;0.00
76496;BME280;65329;52.544;4.662;2023-02-01T08:37:39;78195.13;;;-139.74;0.00
76496;BME280;65329;52.544;4.662;2023-02-01T08:40:06;78190.91;;;-139.74;0.00
76496;BME280;65329;52.544;4.662;2023-02-01T08:42:34;78182.53;;;-139.74;0.00
76496;BME280;65329;52.544;4.662;2023-02-01T08:45:21;78182.53;;;-139.74;0.00
76496;BME280;65329;52.544;4.662;2023-02-01T08:47:52;78205.59;;;-139.74;0.00
76496;BME280;65329;52.544;4.662;2023-02-01T08:50:20;78186.72;;;-139.74;0.00
76496;BME280;65329;52.544;4.662;2023-02-01T08:52:48;78178.31;;;-139.74;0.00
76496;BME280;65329;52.544;4.662;2023-02-01T08:55:15;78172.03;;;-139.74;0.00
76496;BME280;65329;52.544;4.662;2023-02-01T08:57:43;78159.44;;;-139.74;0.00
76496;BME280;65329;52.544;4.662;2023-02-01T09:00:14;78157.34;;;-139.74;0.00
76496;BME280;65329;52.544;4.662;2023-02-01T09:02:42;78157.34;;;-139.74;0.00
76496;BME280;65329;52.544;4.662;2023-02-01T09:05:09;78157.34;;;-139.74;0.00
76496;BME280;65329;52.544;4.662;2023-02-01T09:07:37;78157.34;;;-139.74;0.00
76496;BME280;65329;52.544;4.662;2023-02-01T09:10:04;78144.75;;;-139.74;0.00
76496;BME280;65329;52.544;4.662;2023-02-01T09:12:33;78138.44;;;-139.74;0.00
76496;BME280;65329;52.544;4.662;2023-02-01T09:15:00;78151.03;;;-139.74;0.00
76496;BME280;65329;52.544;4.662;2023-02-01T09:17:28;78159.44;;;-139.74;0.00
76496;BME280;65329;52.544;4.662;2023-02-01T09:19:56;78169.94;;;-139.74;0.00
76496;BME280;65329;52.544;4.662;2023-02-01T09:22:23;78153.13;;;-139.74;0.00
76496;BME280;65329;52.544;4.662;2023-02-01T09:24:52;78142.66;;;-139.74;0.00
76496;BME280;65329;52.544;4.662;2023-02-01T09:27:21;78144.75;;;-139.74;0.00
76496;BME280;65329;52.544;4.662;2023-02-01T09:29:49;78130.06;;;-139.74;0.00
76496;BME280;65329;52.544;4.662;2023-02-01T09:32:21;78136.34;;;-139.74;0.00
76496;BME280;65329;52.544;4.662;2023-02-01T09:34:49;78132.16;;;-139.74;0.00
76496;BME280;65329;52.544;4.662;2023-02-01T09:37:17;78140.56;;;-139.74;0.00
76496;BME280;65329;52.544;4.662;2023-02-01T09:39:48;78140.56;;;-139.74;0.00
76496;BME280;65329;52.544;4.662;2023-02-01T09:42:48;78136.34;;;-139.74;0.00
76496;BME280;65329;52.544;4.662;2023-02-01T09:45:43;78138.44;;;-139.74;0.00
76496;BME280;65329;52.544;4.662;2023-02-01T09:48:16;78132.16;;;-139.74;0.00
76496;BME280;65329;52.544;4.662;2023-02-01T09:50:48;78132.16;;;-139.74;0.00
76496;BME280;65329;52.544;4.662;2023-02-01T09:53:25;78121.66;;;-139.74;0.00
76496;BME280;65329;52.544;4.662;2023-02-01T09:56:21;78115.38;;;-139.74;0.00
76496;BME280;65329;52.544;4.662;2023-02-01T10:01:37;78132.16;;;-139.74;0.00
76496;BME280;65329;52.544;4.662;2023-02-01T10:04:09;78127.97;;;-139.74;0.00
76496;BME280;65329;52.544;4.662;2023-02-01T10:09:50;78140.56;;;-139.74;0.00
76496;BME280;65329;52.544;4.662;2023-02-01T10:23:47;78117.47;;;-139.74;0.00
76496;BME280;65329;52.544;4.662;2023-02-01T10:26:21;78138.44;;;-139.74;0.00
76496;BME280;65329;52.544;4.662;2023-02-01T10:29:02;78140.56;;;-139.74;0.00
76496;BME280;65329;52.544;4.662;2023-02-01T10:31:33;78144.75;;;-139.74;0.00
76496;BME280;65329;52.544;4.662;2023-02-01T10:34:14;78157.34;;;-139.74;0.00
76496;BME280;65329;52.544;4.662;2023-02-01T10:36:52;78148.94;;;-139.74;0.00
76496;BME280;65329;52.544;4.662;2023-02-01T10:39:20;78138.44;;;-139.74;0.00
76496;BME280;65329;52.544;4.662;2023-02-01T10:41:47;78144.75;;;-139.74;0.00
76496;BME280;65329;52.544;4.662;2023-02-01T10:44:17;78142.66;;;-139.74;0.00
76496;BME280;65329;52.544;4.662;2023-02-01T10:46:44;78140.56;;;-139.74;0.00
76496;BME280;65329;52.544;4.662;2023-02-01T10:49:19;78144.75;;;-139.74;0.00
76496;BME280;65329;52.544;4.662;2023-02-01T10:54:54;78127.97;;;-139.74;0.00
76496;BME280;65329;52.544;4.662;2023-02-01T10:57:23;78132.16;;;-139.74;0.00
76496;BME280;65329;52.544;4.662;2023-02-01T10:59:52;78127.97;;;-139.74;0.00
76496;BME280;65329;52.544;4.662;2023-02-01T11:02:32;78130.06;;;-139.74;0.00
76496;BME280;65329;52.544;4.662;2023-02-01T11:05:09;78115.38;;;-139.74;0.00
76496;BME280;65329;52.544;4.662;2023-02-01T11:07:39;78123.75;;;-139.74;0.00
76496;BME280;65329;52.544;4.662;2023-02-01T11:10:41;78130.06;;;-139.74;0.00
76496;BME280;65329;52.544;4.662;2023-02-01T11:13:17;78109.06;;;-139.74;0.00
76496;BME280;65329;52.544;4.662;2023-02-01T11:15:45;78115.38;;;-139.74;0.00
76496;BME280;65329;52.544;4.662;2023-02-01T11:18:18;78109.06;;;-139.74;0.00
76496;BME280;65329;52.544;4.662;2023-02-01T11:20:47;78102.78;;;-139.74;0.00
76496;BME280;65329;52.544;4.662;2023-02-01T11:23:22;78098.56;;;-139.74;0.00
76496;BME280;65329;52.544;4.662;2023-02-01T11:25:55;78098.56;;;-139.74;0.00
76496;BME280;65329;52.544;4.662;2023-02-01T11:28:29;78098.56;;;-139.74;0.00
76496;BME280;65329;52.544;4.662;2023-02-01T11:31:00;78092.28;;;-139.74;0.00
76496;BME280;65329;52.544;4.662;2023-02-01T11:33:32;78083.88;;;-139.74;0.00
76496;BME280;65329;52.544;4.662;2023-02-01T11:36:09;78085.97;;;-139.74;0.00
76496;BME280;65329;52.544;4.662;2023-02-01T11:38:37;78090.19;;;-139.74;0.00
76496;BME280;65329;52.544;4.662;2023-02-01T11:41:27;78098.56;;;-139.74;0.00
76496;BME280;65329;52.544;4.662;2023-02-01T11:44:02;78088.09;;;-139.74;0.00
76496;BME280;65329;52.544;4.662;2023-02-01T11:46:42;78092.28;;;-139.74;0.00
76496;BME280;65329;52.544;4.662;2023-02-01T11:49:24;78077.59;;;-139.74;0.00
76496;BME280;65329;52.544;4.662;2023-02-01T11:52:08;78077.59;;;-139.74;0.00
76496;BME280;65329;52.544;4.662;2023-02-01T12:00:31;78033.53;;;-139.74;0.00
76496;BME280;65329;52.544;4.662;2023-02-01T12:11:40;78035.63;;;-139.74;0.00
76496;BME280;65329;52.544;4.662;2023-02-01T12:32:49;78018.81;;;-139.74;0.00
76496;BME280;65329;52.544;4.662;2023-02-01T12:43:37;78023.03;;;-139.74;0.00
76496;BME280;65329;52.544;4.662;2023-02-01T12:51:24;78014.63;;;-139.74;0.00
76496;BME280;65329;52.544;4.662;2023-02-01T12:54:26;78018.81;;;-139.74;0.00
76496;BME280;65329;52.544;4.662;2023-02-01T12:57:01;78031.41;;;-139.74;0.00
76496;BME280;65329;52.544;4.662;2023-02-01T13:05:12;78029.31;;;-139.74;0.00
76496;BME280;65329;52.544;4.662;2023-02-01T13:11:29;78002.03;;;-139.74;0.00
76496;BME280;65329;52.544;4.662;2023-02-01T13:19:22;78031.41;;;-139.74;0.00
76496;BME280;65329;52.544;4.662;2023-02-01T13:21:56;78031.41;;;-139.74;0.00
76496;BME280;65329;52.544;4.662;2023-02-01T13:24:48;78056.59;;;-139.74;0.00
76496;BME280;65329;52.544;4.662;2023-02-01T13:27:16;78048.22;;;-139.74;0.00
76496;BME280;65329;52.544;4.662;2023-02-01T13:40:53;78065.00;;;-139.74;0.00
76496;BME280;65329;52.544;4.662;2023-02-01T13:43:26;78073.41;;;-139.74;0.00
76496;BME280;65329;52.544;4.662;2023-02-01T13:45:56;78054.50;;;-139.74;0.00
76496;BME280;65329;52.544;4.662;2023-02-01T13:51:00;78056.59;;;-139.74;0.00
76496;BME280;65329;52.544;4.662;2023-02-01T13:53:34;78060.81;;;-139.74;0.00
76496;BME280;65329;52.544;4.662;2023-02-01T13:56:08;78065.00;;;-139.74;0.00
76496;BME280;65329;52.544;4.662;2023-02-01T13:58:40;78069.19;;;-139.74;0.00
76496;BME280;65329;52.544;4.662;2023-02-01T14:03:57;78077.59;;;-139.74;0.00
76496;BME280;65329;52.544;4.662;2023-02-01T14:11:42;78050.31;;;-139.74;0.00
76496;BME280;65329;52.544;4.662;2023-02-01T14:19:33;77918.09;;;-139.74;0.00
76496;BME280;65329;52.544;4.662;2023-02-01T14:24:52;77905.50;;;-139.74;0.00
76496;BME280;65329;52.544;4.662;2023-02-01T14:27:23;77892.91;;;-139.74;0.00
76496;BME280;65329;52.544;4.662;2023-02-01T14:29:55;77880.31;;;-139.74;0.00
76496;BME280;65329;52.544;4.662;2023-02-01T14:32:30;77846.75;;;-139.74;0.00
76496;BME280;65329;52.544;4.662;2023-02-01T14:35:00;77804.78;;;-139.74;0.00
76496;BME280;65329;52.544;4.662;2023-02-01T14:37:30;77760.72;;;-139.74;0.00
76496;BME280;65329;52.544;4.662;2023-02-01T14:40:00;77762.81;;;-139.74;0.00
76496;BME280;65329;52.544;4.662;2023-02-01T14:50:42;77787.97;;;-139.74;0.00
76496;BME280;65329;52.544;4.662;2023-02-01T15:03:49;77855.13;;;-139.74;0.00
76496;BME280;65329;52.544;4.662;2023-02-01T15:06:39;77846.75;;;-139.74;0.00
76496;BME280;65329;52.544;4.662;2023-02-01T15:12:09;77867.72;;;-139.74;0.00
76496;BME280;65329;52.544;4.662;2023-02-01T15:14:44;77871.94;;;-139.74;0.00
76496;BME280;65329;52.544;4.662;2023-02-01T15:19:59;77846.75;;;-139.74;0.00
76496;BME280;65329;52.544;4.662;2023-02-01T15:22:27;77838.34;;;-139.74;0.00
76496;BME280;65329;52.544;4.662;2023-02-01T15:24:57;77842.53;;;-139.74;0.00
76496;BME280;65329;52.544;4.662;2023-02-01T15:27:26;77855.13;;;-139.74;0.00
76496;BME280;65329;52.544;4.662;2023-02-01T15:29:53;77871.94;;;-139.74;0.00
76496;BME280;65329;52.544;4.662;2023-02-01T15:32:32;77871.94;;;-139.74;0.00
76496;BME280;65329;52.544;4.662;2023-02-01T15:35:00;77867.72;;;-139.74;0.00
76496;BME280;65329;52.544;4.662;2023-02-01T15:37:28;77871.94;;;-139.74;0.00
76496;BME280;65329;52.544;4.662;2023-02-01T15:40:18;77871.94;;;-139.74;0.00
76496;BME280;65329;52.544;4.662;2023-02-01T15:42:58;77859.34;;;-139.74;0.00
76496;BME280;65329;52.544;4.662;2023-02-01T15:45:28;77855.13;;;-139.74;0.00
76496;BME280;65329;52.544;4.662;2023-02-01T15:47:57;77834.16;;;-139.74;0.00
76496;BME280;65329;52.544;4.662;2023-02-01T15:50:24;77838.34;;;-139.74;0.00
76496;BME280;65329;52.544;4.662;2023-02-01T15:52:55;77842.53;;;-139.74;0.00
76496;BME280;65329;52.544;4.662;2023-02-01T15:55:39;77846.75;;;-139.74;0.00
76496;BME280;65329;52.544;4.662;2023-02-01T15:58:20;77846.75;;;-139.74;0.00
76496;BME280;65329;52.544;4.662;2023-02-01T16:00:49;77857.25;;;-139.74;0.00
76496;BME280;65329;52.544;4.662;2023-02-01T16:03:34;77863.53;;;-139.74;0.00